KOAJ

Albert J Ellis Airport

Jacksonville, North Carolina, USA
METAR KOAJ 151856Z 21015G18KT 10SM CLR 22/M02 A2985 RMK AO2 SLP111 T02221017
Observed Flight Rules
Feb-15 @ 18:56 UTC (36 minutes ago) Visual Flight Rules
Wind Visibility Clouds
210° at 15 knots
 Gusting to 18 knots
10 miles
  • Clear skies
Temperatures Readings
Current 22°C / 72°F
Dewpoint -2°C / 28°F
Humidity 20%
Altimeter 29.85" Hg
Pressure 1011.1 hPa
Elevation 29
METAR KOAJ 151856Z 21015G18KT 10SM CLR 22/M02 A2985 RMK AO2 SLP111 T02221017
Observed Flight Rules
Feb-15 @ 18:56 UTC
(36 minutes ago)
VFR
Wind Visibility
210° at 15 knots
 Gusting to 18 knots
10 miles
Clouds
  • Clear skies
Temperature Dewpoint
22°C / 72°F -2°C / 28°F
Humidity Altimeter Pressure
20% 29.85" Hg 1011.1 hPa